Time;durP1;ratioP1;P1;durP2;ratioP2;P2;SDS_P1;SDS_P2;PMS_P1;PMS_P2;Temp;Humidity;BMP_temperature;BMP_pressure;BME280_temperature;BME280_humidity;BME280_pressure;Samples;Min_cycle;Max_cycle;Signal;HPM_P1;HPM_P2
2022/06/22 00:00:44;;;;;;;3.08;1.12;;;;;;;12.88;68.64;97892.72;1739746;82;20960;-69
2022/06/22 00:03:11;;;;;;;2.70;1.07;;;;;;;12.90;68.66;97892.13;1739944;81;21425;-69
2022/06/22 00:05:43;;;;;;;1.80;0.98;;;;;;;12.91;68.57;97893.80;1739784;82;21407;-69
2022/06/22 00:08:15;;;;;;;1.47;1.00;;;;;;;12.92;68.52;97884.55;1755534;81;21749;-69
2022/06/22 00:11:04;;;;;;;1.67;0.80;;;;;;;12.96;68.48;97885.16;1739714;82;21569;-69
2022/06/22 00:13:32;;;;;;;2.85;1.10;;;;;;;12.97;68.49;97884.20;1739847;81;21082;-69
2022/06/22 00:16:07;;;;;;;0.75;0.75;;;;;;;13.00;68.34;97882.64;1739837;82;20987;-69
2022/06/22 00:18:42;;;;;;;2.27;0.90;;;;;;;13.04;68.10;97884.91;1739716;81;21003;-69
2022/06/22 00:21:30;;;;;;;2.50;0.93;;;;;;;13.08;68.01;97873.77;1739071;81;21162;-69
2022/06/22 00:24:00;;;;;;;3.00;0.80;;;;;;;13.12;67.94;97869.98;1739822;82;21026;-68
2022/06/22 00:26:34;;;;;;;1.52;0.78;;;;;;;13.15;68.01;97865.86;1731470;82;20956;-68
2022/06/22 00:29:15;;;;;;;2.47;1.27;;;;;;;13.16;67.81;97854.95;1740149;81;20959;-68
2022/06/22 00:31:58;;;;;;;2.08;1.00;;;;;;;13.16;67.75;97855.77;1739839;82;21558;-68
2022/06/22 00:34:27;;;;;;;;;;;;;;;13.18;67.75;97851.74;1742658;82;21153;-68
2022/06/22 00:37:07;;;;;;;2.33;0.90;;;;;;;13.20;67.67;97851.13;1739686;82;20447;-68
2022/06/22 00:39:44;;;;;;;0.85;0.80;;;;;;;13.20;67.73;97845.90;1722863;81;20975;-68
2022/06/22 00:42:24;;;;;;;2.30;0.95;;;;;;;13.21;67.84;97839.73;1739896;82;21420;-68
2022/06/22 00:45:04;;;;;;;1.45;0.80;;;;;;;13.24;67.77;97841.63;1740191;82;20952;-69
2022/06/22 00:47:36;;;;;;;2.37;0.88;;;;;;;13.27;67.70;97840.56;1737218;81;21247;-69
2022/06/22 00:50:20;;;;;;;1.20;0.75;;;;;;;13.29;67.58;97838.20;1740142;82;21003;-69
2022/06/22 00:53:13;;;;;;;0.98;0.80;;;;;;;13.28;67.50;97837.84;1739748;82;21408;-69
2022/06/22 00:55:44;;;;;;;1.12;0.88;;;;;;;13.27;67.51;97834.88;1731822;82;21060;-68
2022/06/22 00:58:18;;;;;;;0.60;0.33;;;;;;;13.28;67.88;97821.34;1747536;82;21408;-69
2022/06/22 01:00:56;;;;;;;1.10;0.55;;;;;;;13.30;68.16;97824.67;1748255;82;21107;-69
2022/06/22 01:03:45;;;;;;;2.58;0.60;;;;;;;13.33;68.53;97816.59;1747970;82;21012;-67
2022/06/22 01:06:21;;;;;;;2.92;0.45;;;;;;;13.38;68.71;97809.23;1747922;82;21118;-68
2022/06/22 01:09:14;;;;;;;0.98;0.50;;;;;;;13.41;68.88;97812.41;1748075;82;21004;-68
2022/06/22 01:15:24;;;;;;;1.57;0.70;;;;;;;13.42;70.00;97794.96;1748104;82;21575;-68
2022/06/22 01:18:11;;;;;;;0.75;0.60;;;;;;;13.40;70.23;97790.33;1723223;82;20955;-68
2022/06/22 01:21:07;;;;;;;0.78;0.60;;;;;;;13.38;70.18;97780.52;1748044;82;20984;-68
2022/06/22 01:23:49;;;;;;;1.75;0.35;;;;;;;13.37;70.16;97777.55;1748004;82;21059;-68
2022/06/22 01:26:30;;;;;;;0.50;0.40;;;;;;;13.36;70.22;97772.80;1749027;82;21541;-68
2022/06/22 01:29:04;;;;;;;1.00;0.50;;;;;;;13.38;70.76;97776.13;1750723;81;21093;-68
2022/06/22 01:31:30;;;;;;;1.57;0.55;;;;;;;13.37;70.98;97770.55;1750532;80;20931;-69
2022/06/22 01:33:57;;;;;;;0.60;0.47;;;;;;;13.35;71.21;97770.31;1750629;82;20951;-69
2022/06/22 01:36:29;;;;;;;2.85;0.65;;;;;;;13.36;71.43;97761.05;1750590;80;21042;-68
2022/06/22 01:38:55;;;;;;;1.45;0.53;;;;;;;13.38;71.59;97757.02;1750805;80;21502;-69
2022/06/22 01:41:52;;;;;;;1.47;0.40;;;;;;;13.37;71.83;97756.66;1750658;80;21145;-69
2022/06/22 01:44:32;;;;;;;1.20;0.40;;;;;;;13.35;72.02;97757.25;1750854;82;20936;-68
2022/06/22 01:47:33;;;;;;;1.22;0.62;;;;;;;13.33;72.40;97761.29;1750603;81;21052;-68
2022/06/22 01:50:09;;;;;;;1.57;0.50;;;;;;;13.33;72.84;97748.70;1750781;80;21002;-68
2022/06/22 01:52:58;;;;;;;0.47;0.42;;;;;;;13.27;73.83;97744.80;1750580;82;20987;-68
2022/06/22 01:55:56;;;;;;;1.45;0.60;;;;;;;13.21;74.62;97749.19;1750504;82;21268;-68
2022/06/22 01:58:49;;;;;;;0.65;0.30;;;;;;;13.16;76.02;97737.48;1750463;81;20978;-69
2022/06/22 02:01:27;;;;;;;0.40;0.40;;;;;;;13.07;76.97;97738.52;1751037;82;20979;-68
2022/06/22 02:04:12;;;;;;;0.95;0.33;;;;;;;12.98;78.00;97738.42;1750541;82;21058;-68
2022/06/22 02:10:12;;;;;;;1.92;0.60;;;;;;;12.80;80.14;97735.92;1750666;82;21199;-68
2022/06/22 02:12:54;;;;;;;0.93;0.40;;;;;;;12.72;81.53;97741.75;1750703;80;20950;-68
2022/06/22 02:15:41;;;;;;;1.67;0.55;;;;;;;12.64;83.16;97732.38;1729668;82;20947;-68
2022/06/22 02:18:21;;;;;;;1.02;0.50;;;;;;;12.56;84.19;97736.06;1750640;81;20951;-69
2022/06/22 02:20:48;;;;;;;2.20;0.40;;;;;;;12.46;85.51;97733.80;1750698;82;20967;-68
2022/06/22 02:23:30;;;;;;;0.98;0.50;;;;;;;12.37;86.34;97739.25;1750611;81;21141;-69
2022/06/22 02:26:10;;;;;;;1.77;0.60;;;;;;;12.31;87.63;97734.50;1750504;82;21391;-68
2022/06/22 02:28:36;;;;;;;0.95;0.33;;;;;;;12.26;88.24;97734.84;1750658;81;21395;-67
2022/06/22 02:31:03;;;;;;;1.42;0.50;;;;;;;12.18;89.13;97733.77;1740178;82;21086;-67
2022/06/22 02:33:31;;;;;;;0.65;0.40;;;;;;;12.12;89.97;97723.33;1750687;80;20959;-68
2022/06/22 02:35:59;;;;;;;1.17;0.53;;;;;;;12.12;90.67;97725.94;1750845;82;21146;-68
2022/06/22 02:38:26;;;;;;;1.32;0.50;;;;;;;12.11;91.24;97717.76;1750542;82;20955;-68
2022/06/22 02:46:24;;;;;;;2.20;0.50;;;;;;;12.06;92.84;97722.48;1750665;82;21010;-68
2022/06/22 02:48:57;;;;;;;3.08;0.50;;;;;;;12.06;93.66;97719.41;1750598;82;21208;-68
2022/06/22 02:51:26;;;;;;;;;;;;;;;12.07;94.18;97711.11;1753406;81;21498;-69
2022/06/22 02:53:56;;;;;;;1.65;0.55;;;;;;;12.08;94.54;97715.37;1750429;80;20212;-69
2022/06/22 02:56:34;;;;;;;1.77;0.53;;;;;;;12.06;95.00;97707.67;1750892;82;20995;-69
2022/06/22 02:59:01;;;;;;;1.05;0.40;;;;;;;12.08;95.67;97704.48;1750902;82;21415;-68
2022/06/22 03:01:31;;;;;;;2.25;0.57;;;;;;;12.09;95.94;97696.20;1750676;81;21083;-68
2022/06/22 03:04:02;;;;;;;2.72;0.60;;;;;;;12.09;96.23;97700.10;1750650;82;20940;-69
2022/06/22 03:06:34;;;;;;;1.42;0.60;;;;;;;12.09;96.30;97700.10;1751128;82;20963;-69
2022/06/22 03:09:03;;;;;;;1.40;0.70;;;;;;;12.10;96.64;97691.34;1750733;81;21407;-68
2022/06/22 03:11:32;;;;;;;0.57;0.37;;;;;;;12.14;97.01;97695.38;1750972;82;20955;-68
2022/06/22 03:14:21;;;;;;;1.87;0.50;;;;;;;12.15;97.28;97698.34;1750669;81;21236;-68
2022/06/22 03:16:59;;;;;;;0.98;0.55;;;;;;;12.16;97.29;97690.05;1750615;82;20959;-69
2022/06/22 03:19:31;;;;;;;3.37;0.68;;;;;;;12.14;97.84;97692.77;1750723;81;21470;-68
2022/06/22 03:21:57;;;;;;;1.40;0.55;;;;;;;12.12;97.89;97700.34;1729875;82;21002;-68
2022/06/22 03:24:32;;;;;;;0.33;0.33;;;;;;;12.13;97.97;97689.81;1750689;82;20990;-68
2022/06/22 03:27:06;;;;;;;0.40;0.30;;;;;;;12.16;98.18;97697.41;1750763;81;21110;-68
2022/06/22 03:29:55;;;;;;;1.17;0.47;;;;;;;12.21;98.37;97689.20;1750457;81;21438;-68
2022/06/22 03:32:35;;;;;;;0.55;0.40;;;;;;;12.24;98.35;97681.16;1747694;82;21518;-68
2022/06/22 03:35:22;;;;;;;0.98;0.30;;;;;;;12.29;97.87;97688.16;1750578;82;20959;-68
2022/06/22 03:38:12;;;;;;;1.05;0.30;;;;;;;12.32;97.51;97681.41;1750821;82;21387;-68
2022/06/22 03:40:46;;;;;;;1.05;0.30;;;;;;;12.31;97.08;97675.37;1750803;80;21164;-68
2022/06/22 03:43:30;;;;;;;2.15;0.50;;;;;;;12.32;96.86;97678.81;1750691;81;21054;-68
2022/06/22 03:46:17;;;;;;;0.20;0.20;;;;;;;12.30;96.87;97684.61;1750697;81;21112;-68
2022/06/22 03:48:49;;;;;;;0.78;0.35;;;;;;;12.26;96.95;97689.22;1751010;82;20995;-68
2022/06/22 03:51:21;;;;;;;0.30;0.20;;;;;;;12.27;96.98;97684.37;1750826;80;21002;-68
2022/06/22 03:54:18;;;;;;;0.20;0.20;;;;;;;12.32;97.16;97697.89;1750932;82;21702;-69
2022/06/22 03:56:49;;;;;;;0.82;0.10;;;;;;;12.47;97.28;97680.70;1750733;81;21034;-69
2022/06/22 03:59:15;;;;;;;0.20;0.10;;;;;;;12.80;97.22;97685.88;1751024;82;20994;-69
2022/06/22 04:01:42;;;;;;;0.85;0.30;;;;;;;13.17;95.55;97681.23;1750724;80;21010;-69
2022/06/22 04:04:09;;;;;;;1.37;0.40;;;;;;;13.46;94.94;97686.70;1750745;82;20947;-69
2022/06/22 04:06:46;;;;;;;0.40;0.35;;;;;;;13.66;92.67;97689.81;1750553;81;21145;-70
2022/06/22 04:09:21;;;;;;;0.40;0.40;;;;;;;13.71;91.55;97686.83;1750716;81;20944;-69
2022/06/22 04:12:11;;;;;;;0.30;0.30;;;;;;;13.78;91.44;97686.21;1750775;80;20951;-69
2022/06/22 04:15:14;;;;;;;0.75;0.20;;;;;;;13.91;90.32;97687.80;1750793;82;20923;-69
2022/06/22 04:17:45;;;;;;;0.30;0.20;;;;;;;14.11;89.60;97688.27;1750757;82;21017;-69
2022/06/22 04:20:59;;;;;;;0.53;0.45;;;;;;;14.27;88.74;97691.23;1750902;80;21104;-69
2022/06/22 04:23:07;;;;;;;0.28;0.10;;;;;;;14.37;88.38;97689.52;1737827;82;20991;-69
2022/06/22 04:25:36;;;;;;;0.50;0.40;;;;;;;14.43;87.67;97689.48;1750605;82;21108;-69
2022/06/22 04:28:06;;;;;;;0.62;0.23;;;;;;;14.44;87.07;97688.53;1750612;82;21038;-68
2022/06/22 04:30:36;;;;;;;0.33;0.20;;;;;;;14.45;86.99;97683.16;1750893;82;21002;-68
2022/06/22 04:33:09;;;;;;;0.23;0.23;;;;;;;14.48;87.75;97693.38;1750731;81;21190;-69
2022/06/22 04:36:00;;;;;;;0.57;0.17;;;;;;;14.55;87.25;97694.16;1750600;82;21395;-68
2022/06/22 04:38:53;;;;;;;0.10;0.10;;;;;;;14.60;85.59;97694.09;1749547;80;21403;-68
2022/06/22 04:41:39;;;;;;;;;;;;;;;14.60;85.59;97694.09;1753226;82;20963;-68
2022/06/22 04:44:20;;;;;;;0.45;0.30;;;;;;;14.55;85.89;97695.47;1750802;82;20425;-69
2022/06/22 04:46:49;;;;;;;1.57;0.30;;;;;;;14.46;85.04;97693.16;1749736;81;21067;-68
2022/06/22 04:49:37;;;;;;;0.40;0.28;;;;;;;14.39;86.66;97696.72;1753586;80;21537;-70
2022/06/22 04:52:18;;;;;;;0.80;0.68;;;;;;;14.37;86.10;97699.98;1750454;82;20986;-70
2022/06/22 04:54:44;;;;;;;0.90;0.25;;;;;;;14.32;86.34;97707.86;1750931;82;21078;-70
2022/06/22 04:57:29;;;;;;;1.30;0.53;;;;;;;14.22;86.48;97711.71;1750663;82;21426;-71
2022/06/22 04:59:56;;;;;;;0.65;0.65;;;;;;;14.17;88.01;97715.21;1740865;82;21153;-70
2022/06/22 05:02:26;;;;;;;0.35;0.20;;;;;;;14.21;87.60;97728.35;1750464;80;21034;-70
2022/06/22 05:05:04;;;;;;;0.80;0.25;;;;;;;14.32;87.45;97725.69;1750993;80;21034;-72
2022/06/22 05:07:57;;;;;;;0.20;0.20;;;;;;;14.48;88.69;97733.09;1769893;81;20990;-69
2022/06/22 05:10:44;;;;;;;;;;;;;;;14.61;85.35;97725.02;1771874;81;21290;-69
2022/06/22 05:13:32;;;;;;;0.13;0.10;;;;;;;14.65;83.99;97725.11;1770270;81;21841;-69
2022/06/22 05:15:59;;;;;;;1.67;0.20;;;;;;;14.79;84.39;97720.81;1765967;80;20923;-70
2022/06/22 05:18:30;;;;;;;0.33;0.30;;;;;;;15.00;83.29;97720.27;1769986;81;20959;-70
2022/06/22 05:21:08;;;;;;;0.28;0.28;;;;;;;15.09;81.68;97716.03;1750840;81;21006;-70
2022/06/22 05:23:36;;;;;;;0.68;0.20;;;;;;;15.04;80.00;97719.05;1769999;80;20979;-71
2022/06/22 05:26:06;;;;;;;0.28;0.28;;;;;;;15.11;78.97;97723.27;1769815;81;21116;-70
2022/06/22 05:28:46;;;;;;;0.45;0.10;;;;;;;15.12;76.82;97721.83;1769921;80;21038;-70
2022/06/22 05:31:17;;;;;;;0.10;0.10;;;;;;;15.29;75.66;97727.38;1766493;80;21004;-70
2022/06/22 05:33:46;;;;;;;0.20;0.20;;;;;;;15.51;74.42;97737.13;1771168;80;21377;-70
2022/06/22 05:36:14;;;;;;;1.30;0.42;;;;;;;15.74;73.81;97727.25;1767263;81;21045;-70
2022/06/22 05:38:44;;;;;;;0.95;0.10;;;;;;;16.32;75.00;97725.86;1770087;81;21098;-70
2022/06/22 05:41:14;;;;;;;0.20;0.20;;;;;;;17.17;72.07;97731.44;1731323;82;21038;-70
2022/06/22 05:43:41;;;;;;;1.22;0.13;;;;;;;17.92;69.29;97732.03;1714628;83;21037;-69
2022/06/22 05:46:09;;;;;;;0.45;0.30;;;;;;;18.15;65.58;97726.14;1713068;83;21435;-70
2022/06/22 05:48:44;;;;;;;0.20;0.20;;;;;;;17.80;65.22;97725.67;1710001;82;21002;-71
2022/06/22 05:51:54;;;;;;;1.10;0.30;;;;;;;17.23;67.50;97728.20;1752020;81;21265;-71
2022/06/22 05:54:36;;;;;;;1.62;0.25;;;;;;;16.61;71.01;97735.43;1683946;85;20955;-70
2022/06/22 05:57:28;;;;;;;0.45;0.15;;;;;;;16.07;72.41;97750.88;1685253;85;21027;-70
2022/06/22 06:00:00;;;;;;;1.10;0.50;;;;;;;15.64;73.55;97753.92;1739863;82;21447;-70
2022/06/22 06:02:41;;;;;;;0.42;0.30;;;;;;;15.31;74.80;97770.81;1740047;82;20964;-70
2022/06/22 06:05:40;;;;;;;0.57;0.57;;;;;;;15.18;76.53;97779.40;1739928;82;22102;-70
2022/06/22 06:08:26;;;;;;;0.10;0.10;;;;;;;15.06;77.18;97779.96;1739358;82;21003;-71
2022/06/22 06:10:53;;;;;;;1.30;0.65;;;;;;;14.94;77.20;97782.34;1747306;81;21478;-69
2022/06/22 06:13:38;;;;;;;0.30;0.20;;;;;;;14.80;78.22;97781.36;1749124;81;21039;-69
2022/06/22 06:16:10;;;;;;;0.62;0.33;;;;;;;14.72;77.81;97796.42;1767578;81;20982;-70
2022/06/22 06:18:39;;;;;;;0.40;0.30;;;;;;;14.65;76.00;97785.28;1768504;80;21359;-70
2022/06/22 06:21:20;;;;;;;0.80;0.13;;;;;;;14.68;77.15;97785.86;1742855;80;21023;-70
2022/06/22 06:24:02;;;;;;;0.30;0.30;;;;;;;14.86;76.18;97787.39;1737027;81;21066;-70
2022/06/22 06:29:51;;;;;;;0.37;0.25;;;;;;;15.16;72.73;97782.63;1736851;81;21031;-71
2022/06/22 06:32:41;;;;;;;1.25;0.80;;;;;;;15.56;71.80;97785.72;1736013;82;21257;-70
2022/06/22 06:35:28;;;;;;;0.45;0.30;;;;;;;15.89;70.84;97784.50;1729676;82;21070;-70
2022/06/22 06:38:18;;;;;;;0.30;0.30;;;;;;;16.11;67.34;97797.34;1743408;81;21667;-71
2022/06/22 06:41:11;;;;;;;2.40;0.70;;;;;;;16.11;66.29;97792.92;1743186;81;20980;-69
2022/06/22 06:44:14;;;;;;;1.47;0.40;;;;;;;16.05;66.88;97794.77;1756728;81;22269;-70
2022/06/22 06:46:53;;;;;;;1.60;0.60;;;;;;;16.20;66.91;97780.75;1738807;82;21526;-69
2022/06/22 06:49:37;;;;;;;0.33;0.28;;;;;;;16.46;64.58;97784.92;1758534;81;20999;-71
2022/06/22 06:52:10;;;;;;;0.72;0.30;;;;;;;16.54;64.85;97811.30;1745841;81;20993;-71
2022/06/22 06:54:59;;;;;;;1.12;0.25;;;;;;;16.53;63.22;97809.16;1742583;81;21042;-70
2022/06/22 06:57:25;;;;;;;0.30;0.30;;;;;;;16.48;62.88;97824.50;1751683;81;21058;-72
2022/06/22 06:59:55;;;;;;;2.25;0.37;;;;;;;16.34;62.91;97833.29;1752896;81;21116;-71
2022/06/22 07:02:29;;;;;;;0.40;0.30;;;;;;;16.26;63.66;97828.73;1751451;80;21047;-70
2022/06/22 07:04:57;;;;;;;0.30;0.25;;;;;;;16.25;63.89;97820.52;1741128;81;21026;-71
2022/06/22 07:07:59;;;;;;;0.75;0.40;;;;;;;16.30;63.30;97821.41;1751532;81;20990;-73
2022/06/22 07:10:36;;;;;;;;;;;;;;;16.25;61.90;97824.45;1714335;82;20974;-71
2022/06/22 07:13:15;;;;;;;0.72;0.40;;;;;;;16.06;62.32;97830.52;1749541;81;21192;-71
2022/06/22 07:15:47;;;;;;;5.17;1.15;;;;;;;15.87;63.75;97844.10;1763966;81;21065;-71
2022/06/22 07:18:31;;;;;;;3.90;0.37;;;;;;;15.76;64.70;97828.86;1750206;81;21553;-73
2022/06/22 07:21:40;;;;;;;0.50;0.40;;;;;;;15.78;65.13;97823.00;1756462;81;21453;-72
2022/06/22 07:24:30;;;;;;;2.02;0.60;;;;;;;15.84;63.15;97827.67;1754389;80;21002;-72
2022/06/22 07:27:08;;;;;;;2.45;0.40;;;;;;;15.97;62.34;97846.27;1767166;81;22155;-72
2022/06/22 07:30:01;;;;;;;2.60;0.50;;;;;;;15.97;62.34;97846.27;1756292;80;21080;-71
2022/06/22 07:33:09;;;;;;;0.57;0.35;;;;;;;16.03;61.65;97849.16;1748635;81;21003;-70
2022/06/22 07:35:53;;;;;;;1.65;0.55;;;;;;;16.02;61.55;97847.97;1741289;81;21038;-70
2022/06/22 07:38:38;;;;;;;4.67;1.30;;;;;;;15.96;62.70;97853.30;1751142;81;21482;-70
2022/06/22 07:41:22;;;;;;;3.47;0.85;;;;;;;16.03;62.72;97862.27;1743655;80;21183;-70
2022/06/22 07:43:59;;;;;;;1.72;0.40;;;;;;;16.10;63.32;97863.87;1758248;81;21459;-70
2022/06/22 07:46:47;;;;;;;5.45;0.60;;;;;;;16.22;62.61;97860.61;1740287;80;21046;-69
2022/06/22 07:49:34;;;;;;;2.12;0.50;;;;;;;16.21;63.05;97857.16;1761176;80;22274;-70
2022/06/22 07:52:04;;;;;;;1.12;0.50;;;;;;;16.22;62.63;97860.61;1764368;80;21069;-69
2022/06/22 07:55:05;;;;;;;0.40;0.30;;;;;;;16.17;62.74;97864.98;1770250;80;21114;-70
2022/06/22 07:57:49;;;;;;;0.70;0.30;;;;;;;16.19;63.74;97862.55;1770096;80;21482;-69
2022/06/22 08:00:21;;;;;;;0.78;0.30;;;;;;;16.20;63.52;97862.06;1769571;80;21095;-69
2022/06/22 08:03:18;;;;;;;3.83;0.70;;;;;;;16.15;63.09;97870.84;1749675;80;20990;-70
2022/06/22 08:05:45;;;;;;;1.30;0.50;;;;;;;16.10;62.56;97867.31;1750030;81;21485;-70
2022/06/22 08:08:30;;;;;;;2.90;0.60;;;;;;;16.09;62.99;97866.14;1758677;80;21085;-70
2022/06/22 08:11:22;;;;;;;5.08;0.80;;;;;;;16.11;63.62;97873.39;1735480;80;21367;-71
2022/06/22 08:14:07;;;;;;;1.57;0.90;;;;;;;16.14;63.31;97878.38;1747750;81;21467;-71
2022/06/22 08:16:39;;;;;;;0.60;0.50;;;;;;;16.11;63.48;97880.78;1752534;81;21065;-71
2022/06/22 08:19:06;;;;;;;1.15;0.45;;;;;;;16.09;63.09;97880.56;1741991;80;20948;-70
2022/06/22 08:21:40;;;;;;;1.65;0.50;;;;;;;16.07;62.93;97896.92;1761927;80;22106;-71
2022/06/22 08:24:09;;;;;;;3.20;0.82;;;;;;;16.04;61.87;97890.63;1763009;80;21062;-71
2022/06/22 08:26:37;;;;;;;0.93;0.50;;;;;;;16.06;61.82;97885.59;1766685;80;21478;-69
2022/06/22 08:29:04;;;;;;;2.83;0.75;;;;;;;16.13;60.96;97878.85;1740656;80;21020;-70
2022/06/22 08:31:39;;;;;;;1.40;0.60;;;;;;;16.08;60.74;97886.77;1754855;81;20944;-70
2022/06/22 08:34:11;;;;;;;4.97;0.80;;;;;;;16.07;61.04;97881.19;1767634;80;21498;-70
2022/06/22 08:36:46;;;;;;;8.68;0.90;;;;;;;16.09;61.33;97877.46;1745083;81;20979;-71
2022/06/22 08:39:22;;;;;;;3.95;0.60;;;;;;;16.19;61.41;97890.09;1739589;81;21174;-70
2022/06/22 08:42:21;;;;;;;1.07;0.53;;;;;;;16.27;61.27;97874.98;1747704;81;21037;-71
2022/06/22 08:45:25;;;;;;;0.68;0.33;;;;;;;16.36;61.33;97871.55;1768094;81;21057;-71
2022/06/22 08:48:06;;;;;;;0.55;0.50;;;;;;;16.46;60.49;97885.48;1760000;81;21316;-69
2022/06/22 08:51:17;;;;;;;1.32;0.53;;;;;;;16.58;60.01;97892.74;1769157;80;20994;-71
2022/06/22 08:54:14;;;;;;;2.37;0.50;;;;;;;16.64;59.77;97890.88;1769599;80;20974;-69
2022/06/22 08:57:16;;;;;;;1.90;0.53;;;;;;;16.79;59.59;97889.95;1742024;81;21084;-70
2022/06/22 09:00:07;;;;;;;0.37;0.35;;;;;;;16.90;59.04;97891.13;1751944;81;21100;-70
2022/06/22 09:03:15;;;;;;;3.85;0.62;;;;;;;17.05;59.71;97895.44;1766758;81;21346;-71
2022/06/22 09:05:58;;;;;;;1.75;0.50;;;;;;;17.23;58.68;97892.41;1744489;80;21032;-70
2022/06/22 09:09:05;;;;;;;2.10;0.85;;;;;;;17.33;58.28;97886.64;1735644;82;22334;-69
2022/06/22 09:12:18;;;;;;;1.55;0.30;;;;;;;17.46;57.91;97890.25;1736222;82;21083;-70
2022/06/22 09:14:59;;;;;;;0.85;0.50;;;;;;;17.47;56.49;97901.94;1736031;82;21127;-70
2022/06/22 09:17:46;;;;;;;0.33;0.30;;;;;;;17.26;56.91;97905.75;1754062;81;21260;-69
2022/06/22 09:20:35;;;;;;;0.98;0.53;;;;;;;17.16;57.51;97897.42;1747625;81;21026;-70
2022/06/22 09:23:40;;;;;;;0.40;0.40;;;;;;;17.23;58.52;97897.66;1736465;82;21475;-71
2022/06/22 09:26:15;;;;;;;1.47;0.40;;;;;;;17.36;58.09;97897.36;1736464;82;21006;-70
2022/06/22 09:29:23;;;;;;;1.98;0.40;;;;;;;17.35;56.60;97901.79;1736389;82;20993;-73
2022/06/22 09:32:20;;;;;;;1.10;0.40;;;;;;;17.30;56.70;97905.33;1736197;81;21138;-72
2022/06/22 09:35:11;;;;;;;2.50;0.40;;;;;;;17.44;56.95;97910.11;1736361;81;21029;-70
2022/06/22 09:38:06;;;;;;;4.47;0.70;;;;;;;17.62;56.52;97914.59;1736441;82;21475;-72
2022/06/22 09:41:00;;;;;;;1.95;0.50;;;;;;;17.77;55.91;97916.65;1736431;81;21034;-72
2022/06/22 09:44:02;;;;;;;0.78;0.40;;;;;;;17.78;54.57;97913.05;1747133;81;37137;-72
2022/06/22 09:46:57;;;;;;;3.50;0.57;;;;;;;17.69;55.45;97915.22;1770005;80;21262;-68
2022/06/22 09:50:21;;;;;;;0.65;0.45;;;;;;;17.68;55.95;97916.20;1734058;81;21051;-69
2022/06/22 09:53:29;;;;;;;7.25;1.45;;;;;;;17.61;55.90;97912.45;1770230;81;21042;-69
2022/06/22 09:56:30;;;;;;;2.47;0.98;;;;;;;17.38;55.90;97905.94;1766490;80;21042;-65
2022/06/22 09:59:36;;;;;;;1.80;0.50;;;;;;;17.21;55.72;97906.17;1766329;81;21136;-64
2022/06/22 10:02:37;;;;;;;0.95;0.50;;;;;;;17.10;56.72;97914.23;1757832;80;21206;-67
2022/06/22 10:05:30;;;;;;;2.20;0.50;;;;;;;17.07;57.16;97917.97;1766477;81;21038;-64
2022/06/22 10:08:35;;;;;;;2.12;1.05;;;;;;;17.21;56.99;97912.25;1766468;80;21022;-67
2022/06/22 10:11:32;;;;;;;3.20;0.50;;;;;;;17.42;56.46;97913.36;1744825;81;21014;-64
2022/06/22 10:14:44;;;;;;;5.90;4.67;;;;;;;17.64;55.81;97913.51;1739358;80;21064;-65
2022/06/22 10:17:39;;;;;;;1.25;0.62;;;;;;;17.69;55.30;97917.86;1756420;81;21147;-63
2022/06/22 10:20:50;;;;;;;6.45;0.90;;;;;;;17.67;55.36;97916.34;1747015;81;21885;-63
2022/06/22 10:23:44;;;;;;;0.33;0.33;;;;;;;17.73;55.39;97902.62;1737376;81;21058;-64
2022/06/22 10:26:32;;;;;;;1.02;0.50;;;;;;;17.82;54.55;97892.52;1702368;80;21375;-65
2022/06/22 10:29:49;;;;;;;10.35;0.80;;;;;;;17.84;54.54;97887.45;1767137;81;21124;-66
2022/06/22 10:33:00;;;;;;;0.68;0.40;;;;;;;17.97;55.14;97900.27;1767184;81;21077;-64
2022/06/22 10:35:43;;;;;;;1.00;0.50;;;;;;;18.19;55.86;97893.73;1751305;80;21047;-64
2022/06/22 10:39:03;;;;;;;3.77;0.40;;;;;;;18.53;55.19;97890.77;1736519;81;21023;-65
2022/06/22 10:45:08;;;;;;;0.50;0.30;;;;;;;18.87;52.01;97908.51;1759329;81;21296;-68
2022/06/22 10:47:53;;;;;;;3.35;0.40;;;;;;;18.95;51.97;97905.95;1766706;80;21621;-65
2022/06/22 10:50:52;;;;;;;2.08;0.47;;;;;;;19.12;52.56;97899.80;1752874;80;22326;-63
2022/06/22 10:53:44;;;;;;;0.68;0.40;;;;;;;19.37;51.47;97908.69;1761880;81;21104;-65
2022/06/22 10:56:45;;;;;;;1.02;0.60;;;;;;;19.47;50.79;97913.34;1758182;80;21042;-64
2022/06/22 10:59:38;;;;;;;3.05;0.47;;;;;;;19.62;50.34;97917.55;1754261;81;21077;-64
2022/06/22 11:02:49;;;;;;;0.30;0.30;;;;;;;19.80;49.04;97922.23;1766962;81;21143;-65
2022/06/22 11:05:49;;;;;;;1.98;0.30;;;;;;;19.80;47.79;97914.81;1764738;80;21041;-66
2022/06/22 11:08:27;;;;;;;0.57;0.42;;;;;;;19.66;48.92;97906.20;1739671;81;21104;-69
2022/06/22 11:11:09;;;;;;;3.30;0.57;;;;;;;19.62;49.22;97920.19;1737232;82;21906;-70
2022/06/22 11:14:12;;;;;;;8.65;1.25;;;;;;;19.64;49.83;97914.75;1735959;82;21108;-68
2022/06/22 11:16:59;;;;;;;0.80;0.60;;;;;;;19.73;49.97;97913.33;1758176;81;22275;-69
2022/06/22 11:19:38;;;;;;;5.58;0.80;;;;;;;19.89;49.60;97911.23;1748502;81;21042;-69
2022/06/22 11:22:29;;;;;;;0.75;0.50;;;;;;;19.97;48.72;97919.19;1747663;81;21079;-69
2022/06/22 11:31:53;;;;;;;0.60;0.60;;;;;;;19.57;49.39;97922.50;1736384;80;21886;-69
2022/06/22 11:34:47;;;;;;;1.32;0.40;;;;;;;19.37;49.66;97925.82;1767199;80;21785;-68
2022/06/22 11:37:42;;;;;;;0.62;0.40;;;;;;;19.24;49.95;97923.58;1739464;80;21003;-68
2022/06/22 11:40:39;;;;;;;0.30;0.30;;;;;;;19.29;50.10;97920.48;1713584;82;21089;-67
2022/06/22 11:43:26;;;;;;;2.37;0.60;;;;;;;19.39;49.68;97921.19;1731514;82;20959;-69
2022/06/22 11:46:07;;;;;;;3.17;0.60;;;;;;;19.39;50.35;97929.09;1727531;82;21288;-67
2022/06/22 11:49:09;;;;;;;0.50;0.40;;;;;;;19.47;49.58;97923.88;1725688;82;21055;-69
2022/06/22 11:51:58;;;;;;;0.40;0.40;;;;;;;19.58;49.56;97925.47;1728770;82;20975;-69
2022/06/22 11:54:40;;;;;;;0.88;0.37;;;;;;;19.66;50.14;97918.06;1768924;81;21184;-69
2022/06/22 11:57:47;;;;;;;1.25;0.50;;;;;;;19.73;51.59;97926.52;1769275;80;21013;-69
2022/06/22 12:00:18;;;;;;;1.22;0.30;;;;;;;19.82;51.37;97928.19;1769300;81;21302;-68
2022/06/22 12:03:20;;;;;;;0.47;0.35;;;;;;;19.94;50.72;97920.33;1770159;81;20975;-70
2022/06/22 12:06:21;;;;;;;1.07;0.88;;;;;;;19.97;49.60;97931.06;1765608;81;21603;-67
2022/06/22 12:09:25;;;;;;;0.40;0.40;;;;;;;19.76;50.29;97924.89;1751040;80;21011;-68
2022/06/22 12:12:31;;;;;;;3.05;0.55;;;;;;;19.71;51.03;97926.34;1738969;82;21250;-69
2022/06/22 12:15:16;;;;;;;2.80;0.50;;;;;;;19.46;51.32;97929.31;1736469;81;21340;-69
2022/06/22 12:18:22;;;;;;;0.30;0.30;;;;;;;19.26;52.32;97941.39;1738518;82;21027;-68
2022/06/22 12:21:15;;;;;;;2.47;0.60;;;;;;;19.28;52.47;97937.28;1738134;82;20995;-70
2022/06/22 12:24:11;;;;;;;2.60;0.37;;;;;;;19.37;52.12;97923.67;1738771;81;21035;-69
2022/06/22 12:27:01;;;;;;;3.47;0.65;;;;;;;19.50;51.33;97932.00;1737590;81;21509;-69
2022/06/22 12:30:10;;;;;;;0.42;0.40;;;;;;;19.51;50.59;97946.36;1745796;81;21026;-70
2022/06/22 12:32:51;;;;;;;0.55;0.30;;;;;;;19.50;51.13;97937.28;1758604;80;21779;-70
2022/06/22 12:35:36;;;;;;;0.37;0.37;;;;;;;19.52;50.23;97932.19;1769898;80;21030;-72
2022/06/22 12:38:17;;;;;;;0.30;0.30;;;;;;;19.52;50.21;97935.31;1768249;80;21022;-73
2022/06/22 12:41:11;;;;;;;0.33;0.30;;;;;;;19.52;48.95;97934.83;1756943;80;21046;-72
2022/06/22 12:44:22;;;;;;;3.40;0.60;;;;;;;19.57;48.54;97937.00;1768286;80;21243;-76
2022/06/22 12:47:16;;;;;;;0.25;0.20;;;;;;;19.79;49.28;97958.01;1765338;81;21033;-75
2022/06/22 12:50:09;;;;;;;2.25;0.60;;;;;;;19.99;49.07;97946.22;1761428;80;21093;-74
2022/06/22 12:52:41;;;;;;;1.37;0.88;;;;;;;20.08;49.13;97946.59;1706355;81;21101;-72
2022/06/22 12:55:15;;;;;;;1.70;0.40;;;;;;;20.15;47.62;97979.30;1735224;81;21534;-71
2022/06/22 12:58:02;;;;;;;0.23;0.23;;;;;;;20.19;48.61;97960.80;1733506;81;21825;-74
2022/06/22 13:00:29;;;;;;;1.98;0.80;;;;;;;20.19;49.13;97956.84;1734809;81;21747;-73
2022/06/22 13:02:58;;;;;;;0.75;0.40;;;;;;;20.35;49.22;97952.61;1736062;81;22113;-76
2022/06/22 13:05:28;;;;;;;0.65;0.30;;;;;;;20.50;48.81;97962.90;1761251;81;21147;-66
2022/06/22 13:07:59;;;;;;;0.33;0.10;;;;;;;20.53;47.58;97967.38;1746552;81;21049;-72
2022/06/22 13:10:31;;;;;;;0.65;0.35;;;;;;;20.46;47.86;97959.75;1766391;81;21091;-71
2022/06/22 13:13:24;;;;;;;0.40;0.40;;;;;;;20.34;47.74;97959.70;1767027;80;21084;-70
2022/06/22 13:16:08;;;;;;;0.20;0.20;;;;;;;20.15;48.51;97949.43;1736056;82;21041;-70